Terminal Aerodrome Forecast
Issued by NWS

Home | Current Version | Previous Version | Text Only | Print | Product List | Glossary Off
Versions: 1 2 3 4 5 6 7 8 9 10 11 12 13 14 15 16 17

538
FTUS43 KUNR 181341 AAA
TAFGCC
TAF AMD
KGCC 181341Z 1814/1912 18018KT P6SM SCT150
     FM181800 22013KT P6SM SCT200=

USA.gov is the U.S. government's official web portal to all federal, state and local government web resources and services.